sensor_id;sensor_type;location;lat;lon;timestamp;temperature;humidity
73875;HTU21D;62209;47.568;7.558;2022-09-12T00:05:55;11.97;101.80
73875;HTU21D;62209;47.568;7.558;2022-09-12T00:21:02;11.84;102.59
73875;HTU21D;62209;47.568;7.558;2022-09-12T00:36:09;11.64;101.09
73875;HTU21D;62209;47.568;7.558;2022-09-12T00:51:17;11.52;103.05
73875;HTU21D;62209;47.568;7.558;2022-09-12T01:06:25;11.28;103.15
73875;HTU21D;62209;47.568;7.558;2022-09-12T01:21:34;11.11;103.65
73875;HTU21D;62209;47.568;7.558;2022-09-12T01:36:47;11.03;103.02
73875;HTU21D;62209;47.568;7.558;2022-09-12T01:51:57;10.82;102.99
73875;HTU21D;62209;47.568;7.558;2022-09-12T02:07:10;10.72;103.94
73875;HTU21D;62209;47.568;7.558;2022-09-12T02:22:19;10.60;103.02
73875;HTU21D;62209;47.568;7.558;2022-09-12T02:37:31;10.56;104.65
73875;HTU21D;62209;47.568;7.558;2022-09-12T02:52:45;10.52;103.33
73875;HTU21D;62209;47.568;7.558;2022-09-12T03:07:58;10.37;104.37
73875;HTU21D;62209;47.568;7.558;2022-09-12T03:23:25;10.20;104.34
73875;HTU21D;62209;47.568;7.558;2022-09-12T03:38:34;10.16;105.35
73875;HTU21D;62209;47.568;7.558;2022-09-12T03:53:40;9.95;105.11
73875;HTU21D;62209;47.568;7.558;2022-09-12T04:08:48;9.91;104.44
73875;HTU21D;62209;47.568;7.558;2022-09-12T04:23:55;9.70;105.02
73875;HTU21D;62209;47.568;7.558;2022-09-12T04:39:01;9.66;105.75
73875;HTU21D;62209;47.568;7.558;2022-09-12T04:54:09;9.63;105.05
73875;HTU21D;62209;47.568;7.558;2022-09-12T05:09:16;9.54;105.24
73875;HTU21D;62209;47.568;7.558;2022-09-12T05:24:21;9.85;106.05
73875;HTU21D;62209;47.568;7.558;2022-09-12T05:39:27;11.37;107.50
73875;HTU21D;62209;47.568;7.558;2022-09-12T05:54:33;12.87;104.82
73875;HTU21D;62209;47.568;7.558;2022-09-12T06:09:38;14.03;102.78
73875;HTU21D;62209;47.568;7.558;2022-09-12T06:24:44;15.02;100.74
73875;HTU21D;62209;47.568;7.558;2022-09-12T06:39:50;16.61;95.82
73875;HTU21D;62209;47.568;7.558;2022-09-12T06:54:55;17.37;92.48
73875;HTU21D;62209;47.568;7.558;2022-09-12T07:10:01;17.21;93.02
73875;HTU21D;62209;47.568;7.558;2022-09-12T07:25:07;18.14;90.22
73875;HTU21D;62209;47.568;7.558;2022-09-12T07:40:13;19.72;86.61
73875;HTU21D;62209;47.568;7.558;2022-09-12T07:55:19;20.84;83.36
73875;HTU21D;62209;47.568;7.558;2022-09-12T08:10:24;21.68;78.89
73875;HTU21D;62209;47.568;7.558;2022-09-12T08:25:30;22.18;77.94
73875;HTU21D;62209;47.568;7.558;2022-09-12T08:40:40;23.10;74.44
73875;HTU21D;62209;47.568;7.558;2022-09-12T08:55:51;24.31;71.66
73875;HTU21D;62209;47.568;7.558;2022-09-12T09:11:02;24.88;71.30
73875;HTU21D;62209;47.568;7.558;2022-09-12T09:26:18;25.04;69.35
73875;HTU21D;62209;47.568;7.558;2022-09-12T09:41:35;26.55;67.09
73875;HTU21D;62209;47.568;7.558;2022-09-12T09:56:49;26.76;66.30
73875;HTU21D;62209;47.568;7.558;2022-09-12T10:11:55;27.28;63.82
73875;HTU21D;62209;47.568;7.558;2022-09-12T10:27:07;27.65;62.03
73875;HTU21D;62209;47.568;7.558;2022-09-12T10:42:17;28.13;59.54
73875;HTU21D;62209;47.568;7.558;2022-09-12T11:13:32;28.74;57.32
73875;HTU21D;62209;47.568;7.558;2022-09-12T11:28:49;29.02;56.13
73875;HTU21D;62209;47.568;7.558;2022-09-12T11:44:03;28.10;56.45
73875;HTU21D;62209;47.568;7.558;2022-09-12T11:59:19;28.58;56.48
73875;HTU21D;62209;47.568;7.558;2022-09-12T12:14:37;29.22;55.74
73875;HTU21D;62209;47.568;7.558;2022-09-12T12:29:45;29.12;53.78
73875;HTU21D;62209;47.568;7.558;2022-09-12T12:44:51;29.37;51.66
73875;HTU21D;62209;47.568;7.558;2022-09-12T12:59:58;29.18;54.13
73875;HTU21D;62209;47.568;7.558;2022-09-12T13:15:27;29.44;48.85
73875;HTU21D;62209;47.568;7.558;2022-09-12T13:30:56;28.76;51.18
73875;HTU21D;62209;47.568;7.558;2022-09-12T13:46:06;28.85;54.15
73875;HTU21D;62209;47.568;7.558;2022-09-12T14:01:17;29.34;50.87
73875;HTU21D;62209;47.568;7.558;2022-09-12T14:16:22;28.33;52.26
73875;HTU21D;62209;47.568;7.558;2022-09-12T14:31:31;28.45;52.60
73875;HTU21D;62209;47.568;7.558;2022-09-12T14:46:40;27.66;53.94
73875;HTU21D;62209;47.568;7.558;2022-09-12T15:01:46;27.82;55.06
73875;HTU21D;62209;47.568;7.558;2022-09-12T15:16:53;27.89;52.71
73875;HTU21D;62209;47.568;7.558;2022-09-12T15:31:58;27.55;54.59
73875;HTU21D;62209;47.568;7.558;2022-09-12T15:47:04;27.10;56.00
73875;HTU21D;62209;47.568;7.558;2022-09-12T16:02:12;26.63;58.44
73875;HTU21D;62209;47.568;7.558;2022-09-12T16:17:18;26.32;59.00
73875;HTU21D;62209;47.568;7.558;2022-09-12T16:32:24;25.88;60.76
73875;HTU21D;62209;47.568;7.558;2022-09-12T16:47:30;25.45;60.83
73875;HTU21D;62209;47.568;7.558;2022-09-12T17:02:36;24.79;61.79
73875;HTU21D;62209;47.568;7.558;2022-09-12T17:17:42;24.30;61.88
73875;HTU21D;62209;47.568;7.558;2022-09-12T17:32:51;23.64;64.88
73875;HTU21D;62209;47.568;7.558;2022-09-12T17:47:57;22.75;71.95
73875;HTU21D;62209;47.568;7.558;2022-09-12T18:03:04;21.87;75.64
73875;HTU21D;62209;47.568;7.558;2022-09-12T18:18:09;21.20;80.95
73875;HTU21D;62209;47.568;7.558;2022-09-12T18:33:15;20.75;84.03
73875;HTU21D;62209;47.568;7.558;2022-09-12T18:48:26;20.13;87.89
73875;HTU21D;62209;47.568;7.558;2022-09-12T19:03:33;19.66;89.38
73875;HTU21D;62209;47.568;7.558;2022-09-12T19:18:39;19.14;89.89
73875;HTU21D;62209;47.568;7.558;2022-09-12T19:33:46;18.69;93.34
73875;HTU21D;62209;47.568;7.558;2022-09-12T19:48:52;18.32;93.54
73875;HTU21D;62209;47.568;7.558;2022-09-12T20:03:58;18.82;87.12
73875;HTU21D;62209;47.568;7.558;2022-09-12T20:19:04;18.77;87.10
73875;HTU21D;62209;47.568;7.558;2022-09-12T20:34:12;18.81;87.80
73875;HTU21D;62209;47.568;7.558;2022-09-12T20:49:19;18.57;88.07
73875;HTU21D;62209;47.568;7.558;2022-09-12T21:04:26;18.52;87.66
73875;HTU21D;62209;47.568;7.558;2022-09-12T21:19:32;18.17;89.60
73875;HTU21D;62209;47.568;7.558;2022-09-12T21:34:37;17.56;93.08
73875;HTU21D;62209;47.568;7.558;2022-09-12T21:49:44;17.17;92.73
73875;HTU21D;62209;47.568;7.558;2022-09-12T22:04:49;17.05;94.88
73875;HTU21D;62209;47.568;7.558;2022-09-12T22:19:55;16.84;92.83
73875;HTU21D;62209;47.568;7.558;2022-09-12T22:35:00;17.03;92.51
73875;HTU21D;62209;47.568;7.558;2022-09-12T22:50:07;16.87;93.11
73875;HTU21D;62209;47.568;7.558;2022-09-12T23:05:13;16.95;93.19
73875;HTU21D;62209;47.568;7.558;2022-09-12T23:20:19;16.80;93.23
73875;HTU21D;62209;47.568;7.558;2022-09-12T23:35:24;16.70;92.67
73875;HTU21D;62209;47.568;7.558;2022-09-12T23:50:30;16.51;94.28
